EST,Max TemperatureF,Mean TemperatureF,Min TemperatureF,Max Dew PointF,MeanDew PointF,Min DewpointF,Max Humidity, Mean Humidity, Min Humidity, Max Sea Level PressureIn, Mean Sea Level PressureIn, Min Sea Level PressureIn, Max VisibilityMiles, Mean VisibilityMiles, Min VisibilityMiles, Max Wind SpeedMPH, Mean Wind SpeedMPH, Max Gust SpeedMPH,PrecipitationIn, CloudCover, Events, WindDirDegrees
2014-1-1,50,36,23,29,24,20,91,70,36,30.43,30.32,30.15,10,10,10,9,1,,0.00,0,,149
2014-1-2,42,34,26,36,30,24,96,83,60,30.14,29.84,29.56,10,8,1,5,1,,0.00,3,Rain-Snow,325
2014-1-3,33,24,14,32,7,-7,96,52,26,30.51,30.17,29.57,10,9,2,20,9,32,0.00,2,Snow,312
2014-1-4,39,24,10,19,9,2,83,54,22,30.55,30.44,30.30,10,10,10,9,2,,0.00,1,,176
2014-1-5,61,48,34,58,36,19,92,68,49,30.30,30.09,29.75,10,10,5,14,3,20,0.00,8,Rain,144
2014-1-6,63,41,18,59,33,-11,90,64,23,30.07,29.71,29.50,10,10,4,18,11,31,0.00,6,Rain,255
2014-1-7,21,15,9,-1,-12,-17,53,31,20,30.47,30.34,30.07,10,10,10,16,9,22,0.00,0,,245
2014-1-8,34,20,7,12,3,-6,81,49,20,30.62,30.53,30.46,10,10,7,7,2,,0.00,0,,189
2014-1-9,42,33,25,26,16,10,82,51,31,30.63,30.56,30.48,10,10,7,10,3,,0.00,1,,56
2014-1-10,42,35,29,41,33,24,97,88,75,30.51,30.36,30.13,10,5,1,5,1,,0.00,8,Rain,16
2014-1-11,67,54,41,64,52,40,97,92,81,30.12,29.74,29.50,10,6,0,16,4,29,0.00,7,Fog-Rain-Thunderstorm,190
2014-1-12,54,44,32,48,31,23,90,59,30,30.14,29.92,29.57,10,10,10,13,6,18,0.00,0,,239
2014-1-13,61,48,35,34,30,28,80,53,29,30.16,30.05,29.93,10,10,10,16,6,28,0.00,0,,173
2014-1-14,52,44,37,49,43,34,97,85,50,29.95,29.84,29.72,10,7,0,12,4,17,0.00,6,Fog-Rain,202
2014-1-15,55,46,36,47,39,33,97,84,53,29.98,29.92,29.85,10,6,0,14,5,22,0.00,6,Fog-Rain-Thunderstorm,173
2014-1-16,40,35,30,33,29,23,94,81,51,30.04,29.97,29.90,10,8,2,9,5,9,0.00,5,Rain-Snow,302
2014-1-17,50,40,29,31,27,22,90,67,34,30.00,29.92,29.81,10,10,7,9,4,,0.00,0,,161
2014-1-18,43,32,20,30,16,3,73,51,26,30.01,29.90,29.78,10,10,10,13,6,20,0.00,4,,287
2014-1-19,52,36,20,22,17,13,75,44,25,29.99,29.86,29.78,10,10,10,16,5,24,0.00,2,,209
2014-1-20,59,47,36,26,19,13,61,36,19,29.88,29.76,29.67,10,10,10,15,8,23,0.00,0,,223
2014-1-21,39,29,19,29,23,14,83,70,55,29.88,29.77,29.65,10,7,0,17,6,31,0.00,5,Snow,18
2014-1-22,21,12,3,13,-5,-13,76,45,23,30.13,29.99,29.84,10,9,2,15,9,23,0.00,2,Snow,307
2014-1-23,30,15,1,5,-1,-11,80,49,27,30.44,30.25,30.12,10,10,10,14,3,22,0.00,3,,275
2014-1-24,24,12,1,-6,-10,-15,67,34,18,30.57,30.43,30.18,10,10,10,10,5,16,0.00,0,,235
2014-1-25,34,26,18,16,0,-7,50,32,24,30.18,29.77,29.54,10,10,5,16,11,26,0.00,3,Snow,198
2014-1-26,39,26,14,18,2,-6,57,31,16,29.95,29.85,29.70,10,10,10,13,6,24,0.00,1,,198
2014-1-27,60,44,26,28,17,-4,53,38,27,30.16,29.85,29.72,10,10,7,15,8,25,0.00,1,,247
2014-1-28,25,20,14,10,-4,-19,79,42,19,30.43,30.33,30.18,10,7,1,16,8,22,0.00,6,Snow,339
2014-1-29,25,17,8,9,0,-10,78,54,24,30.37,30.29,30.21,10,8,1,12,4,18,0.00,2,Snow,308
2014-1-30,33,15,-2,7,-1,-9,80,54,20,30.48,30.37,30.23,10,10,10,7,1,,0.00,0,,82
2014-1-31,45,27,9,20,10,4,79,53,20,30.24,30.18,30.14,10,10,10,7,1,,0.00,0,,119